61  °F
Temperature
16  °C
Temperature
14  °C
 Dewpoint
57  °F
  Dewpoint
88  %
 Humidity
  Temperature
8  mph
Wind Speed
7  kts
Wind Speed
13  km/h
Wind Speed
3.6  m/s
Wind Speed
60°
East North
East

Wind Speed
Mostly Cloudy
Conditions
Pressure 30.04 (inHG) - 1017.32 (mb)
Visibility 10.0 (mi) - 16.1 (km)

Sky Conditions
KPCW
Location Erie-Ottawa International 5 mi (8.05 km)
Metar :KPCW 270315Z AUTO 06007KT 10SM BKN030 OVC042 16/14 A3004 RMK AO2
Sun 26th May 23:15 pm

Nearest Airport
https://www.checkwx.com/weather/KPCW
  Metar Aviation API Data Provided by https://www.checkwx.com/ Original CSS/SVG/PHP scripts by weather34.com © 2015-2019